Nearby METAR Reports

 

KALB - Albany, New York, USA
Distance from station: E 47mi, 75km
Updated: Thu, 14-Nov-2019 7:51am EST
Overcast
Overcast
 Wind from S
Wind: S 8 mph , 13 km/h
Temperature: 25°F , -4°C
Wind Chill: 16°F , -9°C
Dew Point: 9°F , -13°C
Humidity: 50%
Barometer: 30.41 inHg , 1029.8 hPa
Clouds: Overcast
Visibility: 10 miles , 16 km
Cloud details: Few Clouds 9000 ft
Mostly cloudy 12000 ft
Overcast 26000 ft
2019/11/14 12:51 KALB 141251Z 17007KT 10SM FEW090 BKN120 OVC260 M04/M13 A3041 RMK AO2 SLP302 VIRGA ALQDS T10441128
KSLK - Saranac Lake, New York, USA
Distance from station: N 110mi, 177km
Updated: Thu, 14-Nov-2019 7:51am EST
Overcast
Overcast
 Wind from calm
Wind: Calm
Temperature: 16°F , -9°C
Dew Point: 9°F , -13°C
Humidity: 73%
Barometer: 30.18 inHg , 1022 hPa
Clouds: Overcast
Visibility: 10 miles , 16 km
Cloud details: Overcast 6000 ft
2019/11/14 12:51 KSLK 141251Z AUTO 00000KT 10SM OVC060 M09/M13 A3018 RMK AO2 SLP259 T10941128
 
KSYR - Syracuse, New York, USA
Distance from station: W 73mi, 117km
Updated: Thu, 14-Nov-2019 7:54am EST
Overcast
Overcast
 Wind from S
Wind: S 9 mph , 15 km/h
Temperature: 28°F , -2°C
Wind Chill: 19°F , -7°C
Dew Point: 14°F , -10°C
Humidity: 55%
Barometer: 30.26 inHg , 1024.7 hPa
Clouds: Overcast
Visibility: 10 miles , 16 km
Cloud details: Mostly cloudy 4900 ft
Overcast 5500 ft
2019/11/14 12:54 KSYR 141254Z 18008KT 10SM BKN049 OVC055 M02/M10 A3026 RMK AO2 SLP249 T10171100
KBGM - Binghamton, New York, USA
Distance from station: SW 78mi, 126km
Updated: Thu, 14-Nov-2019 7:53am EST
Overcast
Overcast
 Wind from S
Wind: S 9 mph , 15 km/h
Temperature: 23°F , -5°C
Wind Chill: 13°F , -11°C
Dew Point: 10°F , -12°C
Humidity: 58%
Barometer: 30.22 inHg , 1023.4 hPa
Clouds: Overcast
Visibility: 10 miles , 16 km
Cloud details: Mostly cloudy 6500 ft
Overcast 8000 ft
2019/11/14 12:53 KBGM 141253Z 18008KT 10SM BKN065 OVC080 M05/M12 A3022 RMK AO2 SLP262 T10501117
 
KRME - Rome, New York, USA
Distance from station: WNW 43mi, 69km
Updated: Thu, 14-Nov-2019 7:53am EST
Overcast
Overcast
 Wind from E
Wind: E 8 mph , 13 km/h
Temperature: 25°F , -4°C
Wind Chill: 16°F , -9°C
Dew Point: 16°F , -9°C
Humidity: 69%
Barometer: 30.32 inHg , 1026.8 hPa
Clouds: Overcast
Visibility: 10 miles , 16 km
Cloud details: Overcast 7500 ft
2019/11/14 12:53 KRME 141253Z 10007KT 10SM OVC075 M04/M09 A3032 RMK AO2 SLP273 T10441094
KJFK - New York, New York, USA
Distance from station: SSE 159mi, 256km
Updated: Thu, 14-Nov-2019 7:51am EST
Mostly cloudy
Mostly cloudy
 Wind from NNW
Wind: NNW 6 mph , 9 km/h
Temperature: 30°F , -1°C
Wind Chill: 24°F , -4°C
Dew Point: 18°F , -8°C
Humidity: 59%
Barometer: 30.47 inHg , 1031.8 hPa
Clouds: Mostly cloudy
Visibility: 10 miles , 16 km
Cloud details: Few Clouds 3100 ft
Few Clouds 21000 ft
Mostly cloudy 26000 ft
2019/11/14 12:51 KJFK 141251Z 34005KT 10SM FEW031 FEW210 BKN260 M01/M08 A3047 RMK AO2 SLP317 T10061083 $
 
KROC - Rochester, New York, USA
Distance from station: W 150mi, 242km
Updated: Thu, 14-Nov-2019 8:28am EST
Light snow, Overcast
Light snow, Overcast
 Wind from SW
Wind: SW 7 mph , 11 km/h
Temperature: 28°F , -2°C
Wind Chill: 21°F , -6°C
Dew Point: 21°F , -6°C
Humidity: 74%
Barometer: 30.21 inHg , 1023 hPa
Summary: Light Snow
Clouds: Overcast
Visibility: 1 1/2 miles , 2.4 km
Cloud details: Overcast 2500 ft
2019/11/14 13:28 KROC 141328Z 22006KT 1 1/2SM -SN OVC025 M02/M06 A3021 RMK AO2 P0000 T10221061
KART - Watertown, New York, USA
Distance from station: NNW 103mi, 166km
Updated: Thu, 14-Nov-2019 8:16am EST
Light snow, Overcast
Light snow, Overcast
 Wind from S
Wind: S 9 mph , 15 km/h, Gust: 21 mph , 33 km/h
Temperature: 27°F , -3°C
Wind Chill: 18°F , -8°C
Dew Point: 18°F , -8°C
Humidity: 69%
Barometer: 30.23 inHg , 1023.7 hPa
Summary: Light Snow
Clouds: Overcast
Visibility: 1 3/4 miles , 2.8 km
Cloud details: Partly cloudy 4700 ft
Mostly cloudy 5500 ft
Overcast 7500 ft
2019/11/14 13:16 KART 141316Z AUTO 19008G18KT 1 3/4SM -SN SCT047 BKN055 OVC075 M03/M08 A3023 RMK AO2 SNB08 P0000 T10281083
 
KELM - Elmira-Corning, New York, USA
Distance from station: SSW 121mi, 195km
Updated: Thu, 14-Nov-2019 7:53am EST
Overcast
Overcast
 Wind from S
Wind: S 9 mph , 15 km/h
Temperature: 30°F , -1°C
Wind Chill: 22°F , -6°C
Dew Point: 16°F , -9°C
Humidity: 55%
Barometer: 30.23 inHg , 1023.7 hPa
Clouds: Overcast
Visibility: 10 miles , 16 km
Cloud details: Mostly cloudy 6500 ft
Mostly cloudy 9000 ft
Overcast 10000 ft
2019/11/14 12:53 KELM 141253Z 18008KT 10SM BKN065 BKN090 OVC100 M01/M09 A3023 RMK AO2 SLP250 T10111094
KJHW - Jamestown, New York, USA
Distance from station: SW 238mi, 383km
Updated: Thu, 14-Nov-2019 8:13am EST
Light snow, Mist, Overcast
Light snow, Mist, Overcast
 Wind from S
Wind: S 12 mph , 19 km/h
Temperature: 23°F , -5°C
Wind Chill: 11°F , -12°C
Dew Point: 21°F , -6°C
Humidity: 93%
Barometer: 30.13 inHg , 1020.3 hPa
Summary: Light snow, Mist
Clouds: Overcast
Visibility: 3 miles , 5 km
Cloud details: Few Clouds 700 ft
Mostly cloudy 4600 ft
Overcast 5500 ft
2019/11/14 13:13 KJHW 141313Z AUTO 19010KT 3SM -SN BR FEW007 BKN046 OVC055 M05/M06 A3013 RMK AO2 P0000 FZRANO
 
KMSS - Massena, New York, USA
Distance from station: N 141mi, 232km
Updated: Thu, 14-Nov-2019 7:53am EST
Few Clouds
Few Clouds
 Wind from calm
Wind: Calm
Temperature: 19°F , -7°C
Dew Point: 12°F , -11°C
Humidity: 73%
Barometer: 30.26 inHg , 1024.7 hPa
Clouds: Few Clouds
Visibility: 10 miles , 16 km
Cloud details: Few Clouds 8000 ft
2019/11/14 12:53 KMSS 141253Z AUTO 00000KT 10SM FEW080 M07/M11 A3026 RMK AO2 SLP258 T10721111
KBUF - Buffalo, New York, USA
Distance from station: W 204mi, 328km
Updated: Thu, 14-Nov-2019 8:14am EST
Light snow, Mist, Overcast
Light snow, Mist, Overcast
 Wind from S
Wind: S 18 mph , 30 km/h
Temperature: 28°F , -2°C
Wind Chill: 15°F , -9°C
Dew Point: 25°F , -4°C
Humidity: 86%
Barometer: 30.15 inHg , 1021 hPa
Summary: Light snow, Mist
Clouds: Overcast
Visibility: 4 miles , 6 km
Cloud details: Partly cloudy 3200 ft
Overcast 4200 ft
2019/11/14 13:14 KBUF 141314Z 19016KT 4SM -SN BR SCT032 OVC042 M02/M04 A3015 RMK AO2 P0000 T10221044